Time;durP1;ratioP1;P1;durP2;ratioP2;P2;SDS_P1;SDS_P2;PMS_P1;PMS_P2;Temp;Humidity;BMP_temperature;BMP_pressure;BME280_temperature;BME280_humidity;BME280_pressure;Samples;Min_cycle;Max_cycle;Signal;HPM_P1;HPM_P2
2021/11/06 00:00:11;;;;;;;6.83;5.43;;;;;;;7.83;100.00;101311.17;5110491;57;1139008;-81
2021/11/06 00:05:19;;;;;;;7.77;5.63;;;;;;;7.86;100.00;101320.23;5110571;57;1138924;-82
2021/11/06 00:10:25;;;;;;;6.53;5.27;;;;;;;7.88;100.00;101326.28;5110460;57;1138914;-82
2021/11/06 00:15:30;;;;;;;5.90;4.80;;;;;;;7.90;100.00;101331.47;5076264;58;1138985;-82
2021/11/06 00:20:36;;;;;;;7.93;3.90;;;;;;;7.91;100.00;101324.80;5065586;58;1139275;-83
2021/11/06 00:25:43;;;;;;;8.13;5.00;;;;;;;7.92;100.00;101312.02;5078689;58;1139134;-82
2021/11/06 00:30:48;;;;;;;10.47;4.07;;;;;;;7.92;100.00;101315.97;5078428;57;1139060;-82
2021/11/06 00:35:54;;;;;;;9.87;4.87;;;;;;;7.88;100.00;101317.05;5078544;58;1141393;-82
2021/11/06 00:41:00;;;;;;;10.60;3.92;;;;;;;7.84;100.00;101318.14;5078650;57;1138970;-81
2021/11/06 00:46:06;;;;;;;10.97;5.60;;;;;;;7.81;100.00;101316.98;5078587;58;1141075;-83
2021/11/06 00:51:11;;;;;;;7.70;5.20;;;;;;;7.77;100.00;101326.01;5056643;57;1141021;-83
2021/11/06 00:56:17;;;;;;;8.35;5.33;;;;;;;7.73;100.00;101337.16;5010065;58;1136915;-82
2021/11/06 01:01:23;;;;;;;4.60;3.70;;;;;;;7.72;100.00;101337.23;4993079;59;1136888;-82
2021/11/06 01:06:29;;;;;;;5.23;4.73;;;;;;;7.69;100.00;101333.44;4993103;59;1136970;-81
2021/11/06 01:11:35;;;;;;;11.20;5.23;;;;;;;7.68;100.00;101325.16;5039643;58;1136906;-82
2021/11/06 01:16:41;;;;;;;10.27;5.03;;;;;;;7.67;100.00;101330.03;5140980;56;1139005;-82
2021/11/06 01:21:47;;;;;;;4.40;3.20;;;;;;;7.65;100.00;101324.84;5143637;57;1139187;-82
2021/11/06 01:26:53;;;;;;;8.27;5.17;;;;;;;7.67;100.00;101340.10;5091877;57;1136933;-82
2021/11/06 01:31:59;;;;;;;6.73;3.93;;;;;;;7.70;100.00;101339.09;5080619;58;1137164;-83
2021/11/06 01:37:06;;;;;;;8.90;4.87;;;;;;;7.72;100.00;101332.83;5079045;58;1136879;-82
2021/11/06 01:42:12;;;;;;;9.63;5.13;;;;;;;7.74;100.00;101327.02;5062381;58;1136965;-82
2021/11/06 01:47:18;;;;;;;14.60;5.50;;;;;;;7.76;100.00;101333.52;5059175;58;1136928;-82
2021/11/06 01:52:24;;;;;;;5.60;4.23;;;;;;;7.76;100.00;101340.95;5075780;58;1138961;-82
2021/11/06 01:57:30;;;;;;;9.17;4.67;;;;;;;7.75;100.00;101337.93;5078643;58;1136927;-82
2021/11/06 02:02:36;;;;;;;13.77;5.20;;;;;;;7.73;100.00;101341.11;5078375;58;1136820;-83
2021/11/06 02:07:43;;;;;;;6.23;4.20;;;;;;;7.72;100.00;101341.19;5078612;57;1138894;-82
2021/11/06 02:12:49;;;;;;;7.17;4.20;;;;;;;7.71;100.00;101343.43;5014073;57;1136811;-82
2021/11/06 02:17:55;;;;;;;6.90;4.10;;;;;;;7.66;100.00;101344.12;4997146;58;1136902;-82
2021/11/06 02:23:01;;;;;;;4.20;3.80;;;;;;;7.64;100.00;101351.25;4997976;58;1134752;-82
2021/11/06 02:28:07;;;;;;;6.50;4.27;;;;;;;7.62;100.00;101346.56;5013124;57;1134926;-82
2021/11/06 02:33:13;;;;;;;6.33;4.30;;;;;;;7.55;100.00;101343.38;5148723;57;21213;-82
2021/11/06 02:38:19;;;;;;;8.37;5.60;;;;;;;7.55;100.00;101346.02;5123749;57;1134993;-81
2021/11/06 02:43:25;;;;;;;5.08;4.33;;;;;;;7.51;100.00;101344.92;5121124;57;1139014;-82
2021/11/06 02:48:30;;;;;;;7.87;5.10;;;;;;;7.43;100.00;101337.91;4991285;58;1139026;-82
2021/11/06 02:53:37;;;;;;;5.93;4.27;;;;;;;7.45;100.00;101346.58;4991502;58;1139038;-83
2021/11/06 02:58:42;;;;;;;5.97;4.47;;;;;;;7.40;100.00;101338.45;4995222;58;1139268;-82
2021/11/06 03:03:48;;;;;;;13.10;5.33;;;;;;;7.32;100.00;101348.52;5042508;57;1139011;-82
2021/11/06 03:08:54;;;;;;;9.13;4.30;;;;;;;7.30;100.00;101342.48;5042550;58;1141138;-83
2021/11/06 03:14:02;;;;;;;4.70;3.87;;;;;;;7.27;100.00;101365.00;5072882;57;1138909;-82
2021/11/06 03:19:08;;;;;;;9.93;4.17;;;;;;;7.25;100.00;101356.33;5072912;56;1139207;-83
2021/11/06 03:24:14;;;;;;;5.03;3.67;;;;;;;7.23;100.00;101352.06;5003679;58;1139191;-82
2021/11/06 03:29:20;;;;;;;18.27;4.83;;;;;;;7.22;100.00;101351.21;5071700;57;1139030;-81
2021/11/06 03:34:27;;;;;;;7.17;4.13;;;;;;;7.23;100.00;101362.13;5069334;57;1141041;-82
2021/11/06 03:39:32;;;;;;;6.13;4.53;;;;;;;7.24;100.00;101372.19;5209737;56;1139330;-82
2021/11/06 03:44:41;;;;;;;7.93;4.10;;;;;;;7.24;100.00;101379.62;5209781;56;1139007;-82
2021/11/06 03:49:46;;;;;;;9.70;4.77;;;;;;;7.24;100.00;101380.93;5209692;56;1139049;-83
2021/11/06 03:54:53;;;;;;;8.57;3.93;;;;;;;7.26;100.00;101385.66;5209659;56;1139105;-82
2021/11/06 03:59:58;;;;;;;5.72;3.70;;;;;;;7.25;100.00;101385.27;5209330;56;1138925;-82
2021/11/06 04:05:05;;;;;;;11.27;4.17;;;;;;;7.25;100.00;101397.57;5209554;56;1139136;-81
2021/11/06 04:10:12;;;;;;;10.20;4.30;;;;;;;7.25;100.00;101393.16;5187140;56;1141269;-82
2021/11/06 04:15:18;;;;;;;6.73;3.90;;;;;;;7.26;100.00;101402.76;5124076;57;1141255;-82
2021/11/06 04:20:23;;;;;;;4.93;3.60;;;;;;;7.24;100.00;101397.18;5123981;57;1139027;-82
2021/11/06 04:25:29;;;;;;;5.17;3.63;;;;;;;7.21;100.00;101392.92;5124223;57;1138962;-81
2021/11/06 04:30:36;;;;;;;8.80;3.50;;;;;;;7.23;100.00;101392.38;5124924;57;1139003;-80
2021/11/06 04:35:42;;;;;;;8.70;3.60;;;;;;;7.24;100.00;101394.55;5101370;57;1138990;-81
2021/11/06 04:40:48;;;;;;;7.37;4.07;;;;;;;7.24;100.00;101402.45;5063770;57;1139002;-82
2021/11/06 04:45:55;;;;;;;8.83;3.40;;;;;;;7.23;100.00;101399.42;5063883;58;1138923;-82
2021/11/06 04:51:01;;;;;;;9.53;3.87;;;;;;;7.24;100.00;101410.34;5063762;57;1139133;-82
2021/11/06 04:56:07;;;;;;;7.30;4.07;;;;;;;7.25;100.00;101405.47;5064024;57;1138975;-82
2021/11/06 05:01:13;;;;;;;6.83;3.35;;;;;;;7.26;100.00;101404.54;5063606;57;1139033;-82
2021/11/06 05:06:19;;;;;;;9.10;4.67;;;;;;;7.23;100.00;101401.59;5063974;57;1138926;-82
2021/11/06 05:11:25;;;;;;;4.83;3.90;;;;;;;7.18;100.00;101399.64;5107312;57;1139151;-82
2021/11/06 05:16:32;;;;;;;6.40;4.53;;;;;;;7.23;100.00;101402.91;5147427;57;1139593;-82
2021/11/06 05:21:38;;;;;;;7.08;4.58;;;;;;;7.25;100.00;101395.80;5147139;57;1139327;-82
2021/11/06 05:26:44;;;;;;;11.73;5.50;;;;;;;7.27;100.00;101401.84;5198134;56;1139029;-82
2021/11/06 05:31:50;;;;;;;16.77;4.13;;;;;;;7.26;100.00;101403.22;5233500;56;1141489;-82
2021/11/06 05:36:56;;;;;;;8.57;5.43;;;;;;;7.25;100.00;101402.83;5185569;56;1140976;-82
2021/11/06 05:42:02;;;;;;;9.20;4.90;;;;;;;7.25;100.00;101398.89;5189202;56;1138929;-82
2021/11/06 05:47:08;;;;;;;7.77;4.53;;;;;;;7.26;100.00;101412.43;5142359;56;1138932;-82
2021/11/06 05:52:14;;;;;;;7.80;4.37;;;;;;;7.29;100.00;101414.45;5119803;57;1137224;-81
2021/11/06 05:57:20;;;;;;;18.97;8.70;;;;;;;7.31;100.00;101415.70;5102621;57;1136744;-82
2021/11/06 06:02:26;;;;;;;238.07;107.80;;;;;;;7.31;100.00;101424.45;5084827;56;1138942;-82
2021/11/06 06:07:32;;;;;;;165.90;76.30;;;;;;;7.32;100.00;101430.09;5136162;56;1145295;-80
2021/11/06 06:12:39;;;;;;;94.03;45.93;;;;;;;7.31;100.00;101437.60;5172442;56;1143152;-81
2021/11/06 06:17:46;;;;;;;8.93;4.50;;;;;;;7.32;100.00;101435.36;5172357;56;1141010;-81
2021/11/06 06:22:51;;;;;;;8.70;5.13;;;;;;;7.32;100.00;101447.66;5219516;56;1137004;-81
2021/11/06 06:27:57;;;;;;;6.70;5.00;;;;;;;7.33;100.00;101450.69;5195940;56;1136963;-81
2021/11/06 06:33:04;;;;;;;7.13;5.17;;;;;;;7.34;100.00;101456.30;5181602;56;1136915;-80
2021/11/06 06:38:10;;;;;;;10.07;5.10;;;;;;;7.36;100.00;101447.88;5191400;57;1136850;-81
2021/11/06 06:43:17;;;;;;;26.27;11.90;;;;;;;7.37;100.00;101460.96;5214581;56;1139143;-82
2021/11/06 06:48:23;;;;;;;119.27;46.60;;;;;;;7.38;100.00;101471.03;5278853;55;1141065;-81
2021/11/06 06:53:29;;;;;;;120.07;44.00;;;;;;;7.37;100.00;101471.95;5278840;55;1143159;-81
2021/11/06 06:58:35;;;;;;;23.13;11.57;;;;;;;7.37;100.00;101478.06;5275991;55;1143412;-80
2021/11/06 07:03:40;;;;;;;19.50;10.75;;;;;;;7.37;100.00;101476.75;5225156;56;1140974;-81
2021/11/06 07:08:46;;;;;;;15.10;8.97;;;;;;;7.37;100.00;101485.11;5268596;56;1141188;-80
2021/11/06 07:13:53;;;;;;;12.93;5.57;;;;;;;7.40;100.00;101492.40;5191158;57;1139005;-82
2021/11/06 07:18:58;;;;;;;7.90;4.23;;;;;;;7.41;100.00;101489.30;5191050;57;1138976;-81
2021/11/06 07:24:04;;;;;;;9.47;4.73;;;;;;;7.45;100.00;101487.38;5240769;56;1134909;-81
2021/11/06 07:29:10;;;;;;;11.23;4.80;;;;;;;7.47;100.00;101494.75;5246876;56;1134678;-81
2021/11/06 07:34:18;;;;;;;10.77;5.87;;;;;;;7.50;100.00;101495.42;5222809;55;1140949;-81
2021/11/06 07:39:26;;;;;;;22.67;17.45;;;;;;;7.59;100.00;101499.40;5207196;56;1140991;-81
2021/11/06 07:44:32;;;;;;;9.33;5.73;;;;;;;7.59;100.00;101499.40;5229087;55;1143033;-82
2021/11/06 07:49:38;;;;;;;12.00;8.37;;;;;;;7.63;100.00;101495.69;5252229;55;1138926;-81
2021/11/06 07:54:45;;;;;;;7.77;4.63;;;;;;;7.71;100.00;101485.61;5251805;55;1141012;-82
2021/11/06 07:59:51;;;;;;;14.20;7.43;;;;;;;7.79;100.00;101496.63;5251882;55;1138872;-82
2021/11/06 08:04:58;;;;;;;5.60;4.03;;;;;;;7.86;100.00;101503.73;5235907;56;1141232;-81
2021/11/06 08:10:05;;;;;;;9.47;5.73;;;;;;;7.86;100.00;101503.28;5213908;56;1139115;-84
2021/11/06 08:15:14;;;;;;;34.87;14.17;;;;;;;7.86;100.00;101512.50;5165103;56;1139007;-84
2021/11/06 08:20:26;;;;;;;17.60;7.43;;;;;;;7.85;100.00;101490.18;5165063;56;1143078;-84
2021/11/06 08:25:29;;;;;;;23.97;7.50;;;;;;;8.01;100.00;101508.23;5216080;55;1141034;-87
2021/11/06 08:30:35;;;;;;;26.97;9.77;;;;;;;8.09;100.00;101503.44;5224424;55;1140946;-85
2021/11/06 08:35:41;;;;;;;128.33;80.63;;;;;;;8.09;100.00;101514.83;5178205;57;1141149;-83
2021/11/06 08:40:47;;;;;;;74.90;33.13;;;;;;;8.11;100.00;101527.89;5208449;56;1145431;-84
2021/11/06 08:45:53;;;;;;;43.57;20.60;;;;;;;8.08;100.00;101534.66;5259975;56;1143172;-83
2021/11/06 08:51:01;;;;;;;44.63;20.37;;;;;;;8.06;100.00;101533.42;5277314;56;1143114;-85
2021/11/06 08:56:07;;;;;;;24.90;9.27;;;;;;;8.06;100.00;101541.79;5278497;55;1143111;-84
2021/11/06 09:01:14;;;;;;;57.97;18.33;;;;;;;8.06;100.00;101545.73;5278465;55;1140952;-84
2021/11/06 09:06:21;;;;;;;37.90;11.73;;;;;;;8.07;100.00;101552.72;5269527;55;1143135;-83
2021/11/06 09:11:27;;;;;;;48.83;16.03;;;;;;;7.98;100.00;101536.04;5230470;55;1143140;-85
2021/11/06 09:16:33;;;;;;;30.13;8.20;;;;;;;8.04;100.00;101554.18;5244606;56;1143035;-84
2021/11/06 09:21:40;;;;;;;24.77;15.17;;;;;;;8.02;100.00;101558.20;5215782;56;1140903;-82
2021/11/06 09:26:48;;;;;;;38.70;18.03;;;;;;;8.04;100.00;101562.09;5251300;55;1143168;-84
2021/11/06 09:31:54;;;;;;;21.90;9.00;;;;;;;8.06;100.00;101550.55;5238800;55;1143325;-82
2021/11/06 09:37:00;;;;;;;14.97;6.53;;;;;;;8.11;100.00;101548.97;5269811;56;1140338;-82
2021/11/06 09:42:07;;;;;;;19.50;7.53;;;;;;;8.16;100.00;101549.60;5269832;56;1140987;-81
2021/11/06 09:47:13;;;;;;;24.23;9.73;;;;;;;8.20;100.00;101545.03;5248940;56;1141021;-81
2021/11/06 09:52:19;;;;;;;12.63;5.70;;;;;;;8.26;100.00;101538.11;5234682;56;1141058;-82
2021/11/06 09:57:25;;;;;;;127.97;74.03;;;;;;;8.33;100.00;101545.67;5243058;56;1141064;-81
2021/11/06 10:02:31;;;;;;;24.23;11.07;;;;;;;8.40;100.00;101549.67;5277404;56;1145250;-84
2021/11/06 10:07:38;;;;;;;47.27;23.37;;;;;;;8.46;100.00;101543.23;5227384;56;1143240;-84
2021/11/06 10:12:52;;;;;;;48.07;20.80;;;;;;;8.49;100.00;101537.81;5268276;56;1143467;-81
2021/11/06 10:17:57;;;;;;;49.42;21.33;;;;;;;8.51;100.00;101537.73;5202440;56;1143228;-82
2021/11/06 10:23:07;;;;;;;25.40;9.43;;;;;;;8.56;100.00;101529.09;5253111;56;1143189;-81
2021/11/06 10:28:14;;;;;;;33.07;12.83;;;;;;;8.65;100.00;101536.53;5248607;56;1138987;-81
2021/11/06 10:33:22;;;;;;;13.73;8.03;;;;;;;8.71;100.00;101531.77;5228566;56;1141047;-82
2021/11/06 10:38:29;;;;;;;21.13;10.93;;;;;;;8.81;100.00;101528.19;5172617;56;1138939;-81
2021/11/06 10:43:37;;;;;;;42.30;12.28;;;;;;;8.95;100.00;101513.77;5229273;56;1141028;-81
2021/11/06 10:48:43;;;;;;;26.07;8.17;;;;;;;9.06;100.00;101517.98;5251913;55;1141227;-82
2021/11/06 10:53:58;;;;;;;18.85;5.97;;;;;;;9.14;99.00;101519.75;5251901;55;1138873;-81
2021/11/06 10:59:15;;;;;;;8.50;3.07;;;;;;;9.20;99.28;101518.53;5252216;55;1136929;-81
2021/11/06 11:04:24;;;;;;;7.80;3.33;;;;;;;9.25;98.21;101515.64;5252223;55;1134939;-81
2021/11/06 11:09:37;;;;;;;8.80;3.90;;;;;;;9.27;96.98;101511.98;5234239;55;1134800;-82
2021/11/06 11:14:55;;;;;;;12.13;4.15;;;;;;;9.31;97.17;101509.56;5202012;56;1134633;-82
2021/11/06 11:20:02;;;;;;;11.20;3.90;;;;;;;9.36;97.20;101502.21;5183872;55;1138811;-82
2021/11/06 11:25:08;;;;;;;13.88;5.60;;;;;;;9.44;96.69;101505.75;5226631;55;1138872;-81
2021/11/06 11:30:14;;;;;;;9.03;4.43;;;;;;;9.49;95.85;101507.64;5183520;56;1138937;-83
2021/11/06 11:35:19;;;;;;;11.40;4.47;;;;;;;9.54;95.95;101513.52;5176977;56;1137010;-88
2021/11/06 11:40:30;;;;;;;12.07;5.20;;;;;;;9.58;95.77;101515.05;5165238;55;1138807;-83
2021/11/06 11:45:51;;;;;;;27.30;15.17;;;;;;;9.61;96.02;101508.75;5154035;55;1138996;-82
2021/11/06 11:51:02;;;;;;;7.70;3.07;;;;;;;9.59;95.75;101505.34;5199763;55;1140965;-84
2021/11/06 11:56:23;;;;;;;75.17;32.50;;;;;;;9.56;95.06;101512.97;5161616;56;1136948;-84
2021/11/06 12:01:29;;;;;;;136.35;52.95;;;;;;;9.55;95.78;101519.19;5212791;56;1141008;-82
2021/11/06 12:06:39;;;;;;;189.43;62.03;;;;;;;9.58;96.15;101521.66;5178329;55;1143070;-84
2021/11/06 12:11:52;;;;;;;82.47;28.87;;;;;;;9.62;95.66;101517.05;5168765;55;1143000;-83
2021/11/06 12:17:07;;;;;;;70.70;28.00;;;;;;;9.60;95.34;101518.93;5224201;55;1141069;-84
2021/11/06 12:22:31;;;;;;;23.30;8.30;;;;;;;9.59;95.60;101522.51;5181041;56;1140989;-85
2021/11/06 12:27:39;;;;;;;20.90;8.75;;;;;;;9.57;95.42;101510.70;5231289;55;1138939;-83
2021/11/06 12:32:48;;;;;;;69.20;19.40;;;;;;;9.56;95.44;101512.97;5240210;55;1139168;-83
2021/11/06 12:38:05;;;;;;;15.47;5.07;;;;;;;9.54;95.52;101512.20;5232630;55;1141029;-83
2021/11/06 12:43:27;;;;;;;19.70;6.30;;;;;;;9.53;95.43;101527.19;5273264;55;1138927;-84
2021/11/06 12:48:43;;;;;;;16.83;7.10;;;;;;;9.51;95.47;101519.82;5244363;55;1138970;-85
2021/11/06 12:53:56;;;;;;;14.80;6.27;;;;;;;9.55;95.73;101518.33;5221275;55;1136852;-84
2021/11/06 12:59:09;;;;;;;23.70;8.57;;;;;;;9.56;95.45;101503.72;5259504;55;1136877;-87
2021/11/06 13:04:18;;;;;;;11.00;5.62;;;;;;;9.57;95.08;101504.58;5228554;55;1136899;-87
2021/11/06 13:09:29;;;;;;;40.90;14.67;;;;;;;9.58;94.02;101489.97;5230024;55;1137199;-85
2021/11/06 13:14:54;;;;;;;38.33;12.20;;;;;;;9.63;94.83;101489.67;5209549;56;1138985;-86
2021/11/06 13:20:18;;;;;;;30.48;10.13;;;;;;;9.66;94.61;101486.86;5137694;57;1139215;-85
2021/11/06 13:25:37;;;;;;;20.43;7.95;;;;;;;9.65;94.43;101478.08;5042932;58;1137120;-85
2021/11/06 13:31:07;;;;;;;12.13;5.60;;;;;;;9.66;94.43;101483.75;5042763;58;1139545;-86
2021/11/06 13:36:19;;;;;;;10.53;5.10;;;;;;;9.65;94.30;101476.77;5042263;58;1139158;-88
2021/11/06 13:41:31;;;;;;;15.30;6.73;;;;;;;9.59;93.79;101482.42;5042363;58;1139135;-86
2021/11/06 13:46:44;;;;;;;201.93;98.90;;;;;;;9.54;94.74;101491.07;5041619;58;1139175;-86
2021/11/06 13:52:05;;;;;;;209.83;90.07;;;;;;;9.50;95.28;101498.31;5040975;58;1143339;-86
2021/11/06 13:57:25;;;;;;;207.43;72.17;;;;;;;9.41;95.68;101489.61;5041776;57;1143212;-87
2021/11/06 14:02:35;;;;;;;191.60;58.07;;;;;;;9.42;95.64;101493.11;5038259;57;1143240;-85
2021/11/06 14:07:49;;;;;;;268.27;104.03;;;;;;;9.42;95.61;101496.59;5031809;57;1143330;-85
2021/11/06 14:13:10;;;;;;;106.03;48.83;;;;;;;9.44;95.68;101494.72;5028765;56;1145536;-87
2021/11/06 14:18:31;;;;;;;47.73;23.73;;;;;;;9.49;95.44;101490.48;5018111;58;1143207;-86
2021/11/06 14:23:42;;;;;;;28.73;17.10;;;;;;;9.49;94.76;101487.37;5073174;57;1141073;-85
2021/11/06 14:28:55;;;;;;;22.70;13.47;;;;;;;9.52;94.47;101477.95;5095055;57;1141122;-86
2021/11/06 14:34:03;;;;;;;30.67;17.27;;;;;;;9.53;94.21;101474.84;5077431;57;1139285;-85
2021/11/06 14:39:14;;;;;;;54.93;30.80;;;;;;;9.52;93.53;101473.99;5057763;57;1138952;-84
2021/11/06 14:44:29;;;;;;;28.87;19.90;;;;;;;9.56;93.69;101473.82;5069846;57;1138983;-85
2021/11/06 14:49:41;;;;;;;43.17;26.27;;;;;;;9.57;93.63;101478.16;5059734;57;1138926;-86
2021/11/06 14:54:59;;;;;;;14.00;9.80;;;;;;;9.60;93.74;101475.35;5210339;56;1139066;-86
2021/11/06 15:00:25;;;;;;;26.57;14.80;;;;;;;9.61;93.34;101472.62;5226644;56;1136932;-86
2021/11/06 15:05:40;;;;;;;54.47;25.53;;;;;;;9.62;93.14;101478.76;5235463;55;1139039;-83
2021/11/06 15:10:50;;;;;;;22.97;11.43;;;;;;;9.61;93.19;101467.81;5249626;55;21215;-85
2021/11/06 15:15:57;;;;;;;56.80;31.63;;;;;;;9.61;93.06;101462.06;5210516;56;1136875;-87
2021/11/06 15:21:04;;;;;;;83.97;41.27;;;;;;;9.61;92.93;101462.06;5209916;56;1141082;-84
2021/11/06 15:26:10;;;;;;;78.50;39.20;;;;;;;9.61;92.88;101452.81;5197026;56;1141008;-86
2021/11/06 15:31:16;;;;;;;87.53;57.77;;;;;;;9.62;92.83;101457.63;5153249;56;1141247;-85
2021/11/06 15:36:22;;;;;;;129.80;58.13;;;;;;;9.63;92.79;101450.05;5213617;55;1140988;-85
2021/11/06 15:41:28;;;;;;;123.90;53.50;;;;;;;9.59;92.49;101440.63;5237022;55;1143109;-83
2021/11/06 15:46:34;;;;;;;44.50;23.33;;;;;;;9.62;92.63;101439.14;5236981;55;1143527;-83
2021/11/06 15:56:51;;;;;;;43.70;21.73;;;;;;;9.60;92.52;101420.73;5223540;55;1141005;-86
2021/11/06 16:01:57;;;;;;;14.07;8.17;;;;;;;9.61;92.46;101422.91;5224422;55;1140973;-83
2021/11/06 16:07:03;;;;;;;87.37;36.97;;;;;;;9.59;92.09;101420.83;5237500;55;1138893;-86
2021/11/06 16:12:09;;;;;;;24.30;10.73;;;;;;;9.58;92.18;101416.02;5223209;56;1141043;-83
2021/11/06 16:17:16;;;;;;;79.65;51.08;;;;;;;9.57;91.61;101422.23;5219539;56;1141232;-86
2021/11/06 16:22:23;;;;;;;16.90;10.43;;;;;;;9.52;91.74;101407.97;5219520;56;1141157;-86
2021/11/06 16:27:29;;;;;;;33.97;20.87;;;;;;;9.51;91.44;101408.06;5219509;56;1140928;-87
2021/11/06 16:32:35;;;;;;;24.37;15.90;;;;;;;9.49;91.40;101403.34;5219558;56;1141278;-85
2021/11/06 16:37:42;;;;;;;40.60;19.93;;;;;;;9.46;91.66;101412.31;5249864;55;1141201;-88
2021/11/06 16:42:47;;;;;;;253.43;112.47;;;;;;;9.45;91.59;101415.05;5246007;55;1141036;-87
2021/11/06 16:47:53;;;;;;;162.67;61.60;;;;;;;9.43;91.16;101401.92;5218391;56;1145239;-87
2021/11/06 16:52:59;;;;;;;95.53;43.90;;;;;;;9.44;91.54;101405.42;5281611;55;1143604;-87
2021/11/06 16:58:07;;;;;;;57.93;25.80;;;;;;;9.44;91.38;101389.11;5306976;55;1141277;-85
2021/11/06 17:03:13;;;;;;;32.23;14.83;;;;;;;9.42;91.60;101397.58;5307157;55;1141107;-87
2021/11/06 17:13:24;;;;;;;13.33;7.83;;;;;;;9.37;91.24;101385.11;5226502;55;1138945;-86
2021/11/06 17:18:30;;;;;;;10.80;5.58;;;;;;;9.37;91.24;101385.11;5218223;56;1138991;-86
2021/11/06 17:23:37;;;;;;;11.17;5.73;;;;;;;9.39;91.04;101383.70;5218206;56;1138943;-87
2021/11/06 17:28:43;;;;;;;26.10;9.77;;;;;;;9.35;90.41;101381.70;5218288;56;1138956;-87
2021/11/06 17:33:50;;;;;;;14.80;7.40;;;;;;;9.31;89.60;101380.68;5218189;56;1138896;-86
2021/11/06 17:38:56;;;;;;;20.50;7.03;;;;;;;9.26;89.83;101372.17;5218338;56;1138887;-87
2021/11/06 17:44:02;;;;;;;11.12;4.65;;;;;;;9.21;90.08;101371.11;5218198;56;1139160;-87
2021/11/06 17:49:08;;;;;;;9.80;5.33;;;;;;;9.15;89.82;101373.66;5218328;56;1139118;-86
2021/11/06 17:54:14;;;;;;;12.80;6.45;;;;;;;9.08;89.91;101369.66;5219105;56;1136831;-86
2021/11/06 17:59:21;;;;;;;7.20;4.80;;;;;;;9.04;89.80;101370.77;5218843;56;1139340;-86
2021/11/06 18:04:28;;;;;;;7.63;4.60;;;;;;;8.97;89.63;101373.39;5219112;56;1136925;-86
2021/11/06 18:09:36;;;;;;;10.63;5.87;;;;;;;8.96;89.95;101366.88;5231530;55;1136977;-87
2021/11/06 18:14:41;;;;;;;8.40;5.70;;;;;;;8.91;90.14;101363.64;5307855;55;1138987;-87
2021/11/06 18:19:50;;;;;;;9.17;5.03;;;;;;;8.84;89.87;101356.56;5307783;55;1135004;-87
2021/11/06 18:24:55;;;;;;;8.23;5.10;;;;;;;8.83;90.01;101352.23;5308054;55;1134804;-85
2021/11/06 18:30:00;;;;;;;13.63;6.27;;;;;;;8.80;90.07;101349.29;5308167;55;1134769;-86
2021/11/06 18:35:08;;;;;;;7.83;5.07;;;;;;;8.80;89.96;101351.08;5307984;55;1136870;-87
2021/11/06 18:40:16;;;;;;;53.27;27.63;;;;;;;8.81;90.06;101340.91;5307579;55;1134794;-87
2021/11/06 18:45:34;;;;;;;37.43;18.77;;;;;;;8.84;89.96;101341.20;5307560;55;1139020;-86
2021/11/06 18:50:29;;;;;;;23.87;12.63;;;;;;;8.84;90.00;101328.02;5300083;55;1138904;-86
2021/11/06 18:55:36;;;;;;;10.60;5.83;;;;;;;8.83;89.74;101324.53;5307475;55;1138929;-86
2021/11/06 19:00:45;;;;;;;10.25;6.35;;;;;;;8.81;89.17;101311.89;5307245;55;1136858;-86
2021/11/06 19:05:51;;;;;;;10.50;6.27;;;;;;;8.84;89.57;101300.32;5307480;55;1137207;-87
2021/11/06 19:10:59;;;;;;;11.80;5.80;;;;;;;8.84;89.55;101310.41;5270341;55;1137253;-86
2021/11/06 19:16:06;;;;;;;9.88;5.53;;;;;;;8.86;89.36;101303.72;5218646;56;1137152;-86
2021/11/06 19:21:12;;;;;;;14.60;6.30;;;;;;;8.87;88.94;101290.88;5218952;56;1134858;-87
2021/11/06 19:26:19;;;;;;;10.37;6.63;;;;;;;8.91;89.20;101297.69;5218790;56;1136876;-87
2021/11/06 19:31:25;;;;;;;10.57;5.80;;;;;;;8.91;88.85;101295.91;5218751;56;1136920;-88
2021/11/06 19:36:33;;;;;;;13.57;5.40;;;;;;;8.93;88.65;101288.75;5217954;56;1136820;-86
2021/11/06 19:41:38;;;;;;;12.53;6.17;;;;;;;8.95;88.65;101293.95;5207949;56;1134773;-86
2021/11/06 19:46:57;;;;;;;10.85;6.12;;;;;;;8.94;88.26;101288.28;5227669;56;1138981;-87
2021/11/06 19:52:01;;;;;;;10.30;5.90;;;;;;;8.95;88.23;101273.69;5132349;56;1139001;-86
2021/11/06 19:57:08;;;;;;;8.17;4.20;;;;;;;8.94;87.64;101269.34;5208311;56;1138894;-87
2021/11/06 20:02:15;;;;;;;10.20;5.87;;;;;;;8.93;87.35;101276.88;5207743;56;1136928;-86
2021/11/06 20:07:20;;;;;;;8.63;5.53;;;;;;;8.93;87.53;101273.39;5207666;56;1139088;-86
2021/11/06 20:12:28;;;;;;;11.53;5.47;;;;;;;8.94;87.38;101274.63;5207962;56;1136933;-87
2021/11/06 20:17:34;;;;;;;9.63;5.37;;;;;;;8.93;87.18;101270.28;5207875;56;1138987;-87
2021/11/06 20:22:42;;;;;;;9.70;5.10;;;;;;;8.96;87.12;101266.63;5207978;56;1137165;-86
2021/11/06 20:27:48;;;;;;;10.50;6.10;;;;;;;8.95;86.74;101260.50;5207486;56;1136953;-87
2021/11/06 20:32:54;;;;;;;8.77;5.50;;;;;;;8.96;86.90;101261.34;5207876;56;1139021;-86
2021/11/06 20:38:01;;;;;;;16.70;6.83;;;;;;;8.93;87.31;101252.29;5207795;56;1136882;-86
2021/11/06 20:43:07;;;;;;;11.57;5.73;;;;;;;8.94;87.23;101249.56;5207990;56;1139220;-86
2021/11/06 20:48:13;;;;;;;16.90;5.97;;;;;;;8.93;87.33;101243.91;5209106;56;1139057;-87
2021/11/06 20:53:18;;;;;;;10.03;5.67;;;;;;;8.92;87.40;101245.31;5208982;56;1139116;-87
2021/11/06 20:58:24;;;;;;;46.37;17.17;;;;;;;8.93;87.10;101245.22;5208699;56;1139027;-87
2021/11/06 21:03:30;;;;;;;26.87;10.77;;;;;;;8.92;86.99;101240.89;5208492;56;1140939;-87
2021/11/06 21:08:39;;;;;;;18.25;8.23;;;;;;;8.90;87.08;101232.67;5208463;56;1141109;-85
2021/11/06 21:13:56;;;;;;;17.13;8.20;;;;;;;8.92;86.66;101238.72;5294401;55;1138947;-87
2021/11/06 21:18:54;;;;;;;18.13;9.27;;;;;;;8.92;86.95;101243.53;5295797;55;1139072;-86
2021/11/06 21:24:00;;;;;;;24.33;9.77;;;;;;;8.91;86.68;101231.27;5297066;55;1139024;-87
2021/11/06 21:29:07;;;;;;;16.67;6.67;;;;;;;8.90;86.42;101228.72;5297580;55;1139139;-87
2021/11/06 21:34:17;;;;;;;19.83;8.80;;;;;;;8.91;86.59;101223.83;5296504;55;1139027;-87
2021/11/06 21:39:25;;;;;;;22.10;8.63;;;;;;;8.89;86.45;101212.52;5297265;55;1138989;-88
2021/11/06 21:44:31;;;;;;;16.17;10.03;;;;;;;8.81;86.60;101184.82;5296949;55;1139030;-87
2021/11/06 21:49:41;;;;;;;19.30;7.20;;;;;;;8.81;86.60;101184.82;5297060;55;1141390;-87
2021/11/06 21:54:47;;;;;;;13.60;6.03;;;;;;;8.87;86.70;101191.97;5296922;55;1138983;-87
2021/11/06 21:59:53;;;;;;;15.27;8.10;;;;;;;8.86;86.73;101190.30;5297640;55;1139017;-87
2021/11/06 22:04:59;;;;;;;13.23;7.27;;;;;;;8.84;86.86;101175.87;5298578;55;1139007;-86
2021/11/06 22:10:08;;;;;;;17.57;8.40;;;;;;;8.82;86.75;101163.25;5276386;55;1139024;-86
2021/11/06 22:15:15;;;;;;;12.57;6.77;;;;;;;8.78;86.79;101152.03;5209431;56;1139012;-88
2021/11/06 22:20:29;;;;;;;17.83;8.83;;;;;;;8.76;86.89;101153.91;5209394;56;1138989;-87
2021/11/06 22:25:36;;;;;;;13.93;7.47;;;;;;;8.74;86.99;101149.66;5209215;56;1139065;-88
2021/11/06 22:30:42;;;;;;;9.77;5.10;;;;;;;8.70;86.96;101140.25;5209349;56;1137129;-87
2021/11/06 22:35:48;;;;;;;11.73;6.23;;;;;;;8.69;86.98;101122.73;5213864;55;1134830;-85
2021/11/06 22:40:56;;;;;;;8.63;5.33;;;;;;;8.66;87.12;101113.69;5229295;55;1137197;-85
2021/11/06 22:46:02;;;;;;;11.07;6.77;;;;;;;8.63;86.99;101099.36;5211120;55;1134848;-83
2021/11/06 22:51:08;;;;;;;10.93;6.10;;;;;;;8.58;86.96;101086.44;5241294;55;1136947;-86
2021/11/06 22:56:15;;;;;;;9.27;5.60;;;;;;;8.58;87.04;101079.00;5218460;55;1136981;-80
2021/11/06 23:01:26;;;;;;;13.37;7.00;;;;;;;8.55;86.99;101055.48;5245075;55;1134819;-79
2021/11/06 23:06:39;;;;;;;16.80;7.33;;;;;;;8.53;87.20;101049.45;5230681;55;1136872;-82
2021/11/06 23:11:42;;;;;;;15.03;8.10;;;;;;;8.51;87.03;101039.47;5248288;55;1136865;-81
2021/11/06 23:16:51;;;;;;;13.17;7.63;;;;;;;8.48;87.09;101038.33;5267056;55;1137234;-79